Time,TemperatureF,DewpointF,PressureIn,WindDirection,WindDirectionDegrees,WindSpeedMPH,WindSpeedGustMPH,Humidity,HourlyPrecipIn,Conditions,Clouds,dailyrainin,SoftwareType,DateUTC
2013-08-26 00:01:00,62.8,59.5,30.21,South,186,0.0,0.0,89,0.00,CLR,,0.00,WeatherDisplay:10.37,2013-08-26 04:01:00,
2013-08-26 00:06:00,62.9,59.6,30.21,South,186,0.0,0.0,89,0.00,CLR,,0.00,WeatherDisplay:10.37,2013-08-26 04:06:00,
2013-08-26 00:11:00,62.9,59.6,30.21,South,186,0.0,0.0,89,0.00,CLR,,0.00,WeatherDisplay:10.37,2013-08-26 04:11:00,
2013-08-26 00:16:00,62.9,59.6,30.21,South,186,0.0,0.0,89,0.00,CLR,,0.00,WeatherDisplay:10.37,2013-08-26 04:16:00,
2013-08-26 00:21:00,62.9,59.6,30.21,South,186,0.0,0.0,89,0.00,CLR,,0.00,WeatherDisplay:10.37,2013-08-26 04:21:00,
2013-08-26 00:26:00,62.9,59.6,30.21,South,186,0.0,0.0,89,0.00,CLR,,0.00,WeatherDisplay:10.37,2013-08-26 04:26:00,
2013-08-26 00:31:00,62.9,59.6,30.21,South,186,0.0,0.0,89,0.00,CLR,,0.00,WeatherDisplay:10.37,2013-08-26 04:31:00,
2013-08-26 00:36:00,63.0,60.0,30.21,South,186,0.0,0.0,90,0.00,CLR,,0.00,WeatherDisplay:10.37,2013-08-26 04:36:00,
2013-08-26 00:41:00,63.1,60.1,30.21,South,186,1.2,0.0,90,0.00,CLR,,0.00,WeatherDisplay:10.37,2013-08-26 04:41:00,
2013-08-26 00:46:00,63.2,59.9,30.21,South,186,0.0,0.0,89,0.00,CLR,,0.00,WeatherDisplay:10.37,2013-08-26 04:46:00,
2013-08-26 00:51:00,63.4,60.4,30.21,South,186,1.2,0.0,90,0.00,CLR,,0.00,WeatherDisplay:10.37,2013-08-26 04:51:00,
2013-08-26 00:56:00,63.5,60.2,30.21,SSW,202,5.0,5.0,89,0.00,CLR,,0.00,WeatherDisplay:10.37,2013-08-26 04:56:00,
2013-08-26 01:01:00,63.7,60.1,30.21,SSW,192,0.0,0.0,88,0.00,CLR,,0.00,WeatherDisplay:10.37,2013-08-26 05:01:00,
2013-08-26 01:06:00,63.9,60.0,30.20,SSW,192,0.0,0.0,87,0.00,CLR,,0.00,WeatherDisplay:10.37,2013-08-26 05:06:00,
2013-08-26 01:11:00,64.1,60.2,30.20,SSW,192,0.0,0.0,87,0.00,CLR,,0.00,WeatherDisplay:10.37,2013-08-26 05:11:00,
2013-08-26 01:16:00,64.3,60.3,30.20,SW,219,3.5,3.5,87,0.00,CLR,,0.00,WeatherDisplay:10.37,2013-08-26 05:16:00,
2013-08-26 01:21:00,64.5,60.2,30.20,WNW,285,3.5,3.5,86,0.00,CLR,,0.00,WeatherDisplay:10.37,2013-08-26 05:21:00,
2013-08-26 01:26:00,65.2,59.9,30.20,WNW,298,1.2,1.2,83,0.00,CLR,,0.00,WeatherDisplay:10.37,2013-08-26 05:26:00,
2013-08-26 01:31:00,65.7,60.1,30.20,WNW,298,0.0,0.0,82,0.00,CLR,,0.00,WeatherDisplay:10.37,2013-08-26 05:31:00,
2013-08-26 01:36:00,65.9,60.2,30.21,WNW,298,0.0,0.0,82,0.00,CLR,,0.00,WeatherDisplay:10.37,2013-08-26 05:36:00,
2013-08-26 01:41:00,66.0,60.3,30.21,WNW,298,0.0,0.0,82,0.00,CLR,,0.00,WeatherDisplay:10.37,2013-08-26 05:41:00,
2013-08-26 01:46:00,66.0,60.3,30.21,West,269,2.3,0.0,82,0.00,CLR,,0.00,WeatherDisplay:10.37,2013-08-26 05:46:00,
2013-08-26 01:51:00,66.0,60.3,30.21,West,269,0.0,0.0,82,0.00,CLR,,0.00,WeatherDisplay:10.37,2013-08-26 05:51:00,
2013-08-26 01:56:00,66.1,60.1,30.21,NNE,28,2.3,0.0,81,0.00,CLR,,0.00,WeatherDisplay:10.37,2013-08-26 05:56:00,
2013-08-26 02:01:00,66.3,60.3,30.21,West,259,3.5,3.5,81,0.00,CLR,,0.00,WeatherDisplay:10.37,2013-08-26 06:01:00,
2013-08-26 02:06:00,66.5,60.1,30.21,West,259,0.0,0.0,80,0.00,CLR,,0.00,WeatherDisplay:10.37,2013-08-26 06:06:00,
2013-08-26 02:11:00,66.8,59.7,30.21,WSW,251,2.3,2.3,78,0.00,CLR,,0.00,WeatherDisplay:10.37,2013-08-26 06:11:00,
2013-08-26 02:16:00,67.2,60.1,30.20,SSW,211,3.5,3.5,78,0.00,CLR,,0.00,WeatherDisplay:10.37,2013-08-26 06:16:00,
2013-08-26 02:21:00,67.5,60.4,30.20,SSW,213,2.3,2.3,78,0.00,CLR,,0.00,WeatherDisplay:10.37,2013-08-26 06:21:00,
2013-08-26 02:26:00,67.6,60.1,30.20,SW,234,1.2,1.2,77,0.00,CLR,,0.00,WeatherDisplay:10.37,2013-08-26 06:26:00,
2013-08-26 02:31:00,67.7,60.2,30.19,NW,311,3.5,3.5,77,0.00,CLR,,0.00,WeatherDisplay:10.37,2013-08-26 06:31:00,
2013-08-26 02:36:00,67.8,60.0,30.19,NW,311,1.2,0.0,76,0.00,CLR,,0.00,WeatherDisplay:10.37,2013-08-26 06:36:00,
2013-08-26 02:41:00,67.8,60.0,30.18,South,190,5.0,5.0,76,0.00,CLR,,0.00,WeatherDisplay:10.37,2013-08-26 06:41:00,
2013-08-26 02:46:00,67.8,60.0,30.18,SSW,195,3.5,3.5,76,0.00,CLR,,0.00,WeatherDisplay:10.37,2013-08-26 06:46:00,
2013-08-26 02:51:00,67.8,60.0,30.18,South,189,6.9,6.9,76,0.00,CLR,,0.00,WeatherDisplay:10.37,2013-08-26 06:51:00,
2013-08-26 02:56:00,67.9,59.7,30.18,South,190,2.3,2.3,75,0.00,CLR,,0.00,WeatherDisplay:10.37,2013-08-26 06:56:00,
2013-08-26 03:01:00,67.9,60.1,30.18,SW,233,4.6,4.6,76,0.00,CLR,,0.00,WeatherDisplay:10.37,2013-08-26 07:01:00,
2013-08-26 03:06:00,67.9,60.1,30.18,SSE,156,4.0,4.0,76,0.00,CLR,,0.00,WeatherDisplay:10.37,2013-08-26 07:06:00,
2013-08-26 03:11:00,67.9,60.1,30.17,SSE,147,3.5,3.5,76,0.00,CLR,,0.00,WeatherDisplay:10.37,2013-08-26 07:11:00,
2013-08-26 03:16:00,67.9,60.1,30.17,SSE,156,2.3,2.3,76,0.00,CLR,,0.00,WeatherDisplay:10.37,2013-08-26 07:16:00,
2013-08-26 03:21:00,67.8,60.0,30.17,South,185,4.6,4.6,76,0.00,CLR,,0.00,WeatherDisplay:10.37,2013-08-26 07:21:00,
2013-08-26 03:26:00,67.9,60.1,30.17,SSW,199,0.0,0.0,76,0.00,CLR,,0.00,WeatherDisplay:10.37,2013-08-26 07:26:00,
2013-08-26 03:31:00,67.9,60.1,30.17,SSE,163,3.5,3.5,76,0.00,CLR,,0.00,WeatherDisplay:10.37,2013-08-26 07:31:00,
2013-08-26 03:36:00,67.9,60.1,30.17,South,172,4.6,4.6,76,0.00,CLR,,0.00,WeatherDisplay:10.37,2013-08-26 07:36:00,
2013-08-26 03:41:00,67.8,60.0,30.17,SSE,167,3.5,3.5,76,0.00,CLR,,0.00,WeatherDisplay:10.37,2013-08-26 07:41:00,
2013-08-26 03:46:00,67.7,59.5,30.17,South,183,3.0,3.0,75,0.00,CLR,,0.00,WeatherDisplay:10.37,2013-08-26 07:46:00,
2013-08-26 03:51:00,67.7,59.5,30.16,SSW,209,0.0,0.0,75,0.00,CLR,,0.00,WeatherDisplay:10.37,2013-08-26 07:51:00,
2013-08-26 03:56:00,67.7,59.9,30.17,SSW,209,0.0,0.0,76,0.00,CLR,,0.00,WeatherDisplay:10.37,2013-08-26 07:56:00,
2013-08-26 04:01:00,67.6,59.8,30.16,SSW,209,1.2,0.0,76,0.00,FEW,,0.00,WeatherDisplay:10.37,2013-08-26 08:01:00,
2013-08-26 04:06:00,67.5,60.0,30.16,SSW,209,0.0,0.0,77,0.00,FEW,,0.00,WeatherDisplay:10.37,2013-08-26 08:06:00,
2013-08-26 04:11:00,67.4,60.3,30.16,SSW,209,0.0,0.0,78,0.00,FEW,,0.00,WeatherDisplay:10.37,2013-08-26 08:11:00,
2013-08-26 04:17:00,67.2,60.1,30.16,South,182,3.0,3.0,78,0.00,FEW,,0.00,WeatherDisplay:10.37,2013-08-26 08:17:00,
2013-08-26 04:22:00,67.0,59.5,30.16,South,182,3.5,3.5,77,0.00,FEW,,0.00,WeatherDisplay:10.37,2013-08-26 08:22:00,
2013-08-26 04:27:00,67.1,59.6,30.16,SSW,204,3.5,0.0,77,0.00,FEW,,0.00,WeatherDisplay:10.37,2013-08-26 08:27:00,
2013-08-26 04:32:00,67.1,60.0,30.16,SSW,204,1.0,1.0,78,0.00,FEW,,0.00,WeatherDisplay:10.37,2013-08-26 08:32:00,
2013-08-26 04:37:00,67.1,60.0,30.16,SSW,204,0.0,0.0,78,0.00,FEW,,0.00,WeatherDisplay:10.37,2013-08-26 08:37:00,
2013-08-26 04:42:00,67.1,59.3,30.16,SW,227,8.1,8.1,76,0.00,FEW,,0.00,WeatherDisplay:10.37,2013-08-26 08:42:00,
2013-08-26 04:47:00,67.4,60.3,30.16,SW,227,1.0,0.0,78,0.00,FEW,,0.00,WeatherDisplay:10.37,2013-08-26 08:47:00,
2013-08-26 04:52:00,67.3,59.8,30.16,SW,215,1.2,1.2,77,0.00,FEW,,0.00,WeatherDisplay:10.37,2013-08-26 08:52:00,
2013-08-26 04:57:00,67.2,60.1,30.16,SSW,200,2.3,2.3,78,0.00,FEW,,0.00,WeatherDisplay:10.37,2013-08-26 08:57:00,
2013-08-26 05:02:00,67.1,59.6,30.16,South,184,2.3,0.0,77,0.00,BKN,,0.00,WeatherDisplay:10.37,2013-08-26 09:02:00,
2013-08-26 05:07:00,67.2,59.7,30.16,South,184,1.2,1.2,77,0.00,BKN,,0.00,WeatherDisplay:10.37,2013-08-26 09:07:00,
2013-08-26 05:12:00,67.3,59.8,30.16,South,184,2.3,2.3,77,0.00,BKN,,0.00,WeatherDisplay:10.37,2013-08-26 09:12:00,
2013-08-26 05:17:00,67.3,59.8,30.15,South,181,3.5,3.5,77,0.00,BKN,,0.00,WeatherDisplay:10.37,2013-08-26 09:17:00,
2013-08-26 05:22:00,67.4,59.6,30.15,South,186,8.0,8.0,76,0.00,BKN,,0.00,WeatherDisplay:10.37,2013-08-26 09:22:00,
2013-08-26 05:27:00,67.5,59.7,30.16,South,184,3.5,0.0,76,0.00,BKN,,0.00,WeatherDisplay:10.37,2013-08-26 09:27:00,
2013-08-26 05:32:00,67.5,60.0,30.16,SW,215,0.0,0.0,77,0.00,BKN,,0.00,WeatherDisplay:10.37,2013-08-26 09:32:00,
2013-08-26 05:37:00,67.5,59.7,30.16,WSW,237,4.6,4.6,76,0.00,BKN,,0.00,WeatherDisplay:10.37,2013-08-26 09:37:00,
2013-08-26 05:42:00,67.5,59.7,30.16,SW,230,2.3,2.3,76,0.00,BKN,,0.00,WeatherDisplay:10.37,2013-08-26 09:42:00,
2013-08-26 05:47:00,67.5,59.7,30.16,WSW,252,1.2,0.0,76,0.00,BKN,,0.00,WeatherDisplay:10.37,2013-08-26 09:47:00,
2013-08-26 05:52:00,67.5,60.0,30.15,WSW,241,3.0,3.0,77,0.00,BKN,,0.00,WeatherDisplay:10.37,2013-08-26 09:52:00,
2013-08-26 05:57:00,67.4,59.6,30.16,SSW,209,3.5,3.5,76,0.00,BKN,,0.00,WeatherDisplay:10.37,2013-08-26 09:57:00,
2013-08-26 06:02:00,67.4,59.9,30.15,South,183,4.0,4.0,77,0.00,CLR,,0.00,WeatherDisplay:10.37,2013-08-26 10:02:00,
2013-08-26 06:07:00,67.5,59.7,30.15,SSW,212,6.9,6.9,76,0.00,CLR,,0.00,WeatherDisplay:10.37,2013-08-26 10:07:00,
2013-08-26 06:12:00,67.5,60.0,30.15,WNW,295,3.5,3.5,77,0.00,CLR,,0.00,WeatherDisplay:10.37,2013-08-26 10:12:00,
2013-08-26 06:17:00,67.4,59.9,30.16,SSW,196,3.5,3.5,77,0.00,CLR,,0.00,WeatherDisplay:10.37,2013-08-26 10:17:00,
2013-08-26 06:22:00,67.4,59.9,30.15,SSW,196,1.2,0.0,77,0.00,CLR,,0.00,WeatherDisplay:10.37,2013-08-26 10:22:00,
2013-08-26 06:27:00,67.3,59.8,30.15,WSW,242,1.2,1.2,77,0.00,CLR,,0.00,WeatherDisplay:10.37,2013-08-26 10:27:00,
2013-08-26 06:32:00,67.2,59.7,30.15,SSW,207,3.5,3.5,77,0.00,CLR,,0.00,WeatherDisplay:10.37,2013-08-26 10:32:00,
2013-08-26 06:37:00,67.2,59.7,30.15,SSW,202,1.2,1.2,77,0.00,CLR,,0.00,WeatherDisplay:10.37,2013-08-26 10:37:00,
2013-08-26 06:42:00,67.1,59.6,30.15,SSW,207,3.5,3.5,77,0.00,CLR,,0.00,WeatherDisplay:10.37,2013-08-26 10:42:00,
2013-08-26 06:47:00,67.2,59.7,30.15,SSW,193,7.0,7.0,77,0.00,CLR,,0.00,WeatherDisplay:10.37,2013-08-26 10:47:00,
2013-08-26 06:52:00,67.3,59.8,30.15,SW,224,3.5,3.5,77,0.00,CLR,,0.00,WeatherDisplay:10.37,2013-08-26 10:52:00,
2013-08-26 06:57:00,67.3,59.8,30.14,SSW,202,3.5,3.5,77,0.00,CLR,,0.00,WeatherDisplay:10.37,2013-08-26 10:57:00,
2013-08-26 07:02:00,67.3,59.8,30.14,SE,141,1.2,1.2,77,0.00,FEW,,0.00,WeatherDisplay:10.37,2013-08-26 11:02:00,
2013-08-26 07:07:00,67.3,59.8,30.14,SW,225,2.3,2.3,77,0.00,FEW,,0.00,WeatherDisplay:10.37,2013-08-26 11:07:00,
2013-08-26 07:12:00,67.2,60.1,30.14,SSW,194,3.5,3.5,78,0.00,FEW,,0.00,WeatherDisplay:10.37,2013-08-26 11:12:00,
2013-08-26 07:17:00,67.2,60.1,30.14,South,187,2.3,2.3,78,0.00,FEW,,0.00,WeatherDisplay:10.37,2013-08-26 11:17:00,
2013-08-26 07:22:00,67.2,60.5,30.14,SSW,205,3.5,3.5,79,0.00,FEW,,0.00,WeatherDisplay:10.37,2013-08-26 11:22:00,
2013-08-26 07:27:00,67.2,60.1,30.14,WSW,258,1.2,1.2,78,0.00,FEW,,0.00,WeatherDisplay:10.37,2013-08-26 11:27:00,
2013-08-26 07:32:00,67.3,60.6,30.14,WSW,258,1.2,1.2,79,0.00,FEW,,0.00,WeatherDisplay:10.37,2013-08-26 11:32:00,
2013-08-26 07:37:00,67.4,60.7,30.14,WSW,258,0.0,0.0,79,0.00,FEW,,0.00,WeatherDisplay:10.37,2013-08-26 11:37:00,
2013-08-26 07:42:00,67.4,60.3,30.14,WSW,258,2.3,2.3,78,0.00,FEW,,0.00,WeatherDisplay:10.37,2013-08-26 11:42:00,
2013-08-26 07:47:00,67.4,60.7,30.14,SSW,201,3.0,3.0,79,0.00,FEW,,0.00,WeatherDisplay:10.37,2013-08-26 11:47:00,
2013-08-26 07:52:00,67.4,60.3,30.14,SW,230,3.5,3.5,78,0.00,FEW,,0.00,WeatherDisplay:10.37,2013-08-26 11:52:00,
2013-08-26 07:57:00,67.5,60.4,30.14,WSW,252,3.5,3.5,78,0.00,FEW,,0.00,WeatherDisplay:10.37,2013-08-26 11:57:00,
2013-08-26 08:02:00,67.6,60.9,30.14,NW,322,1.2,1.2,79,0.00,BKN,,0.00,WeatherDisplay:10.37,2013-08-26 12:02:00,
2013-08-26 08:07:00,67.7,60.6,30.13,SSW,212,3.5,3.5,78,0.00,BKN,,0.00,WeatherDisplay:10.37,2013-08-26 12:07:00,
2013-08-26 08:12:00,67.8,60.7,30.13,South,185,2.3,2.3,78,0.00,BKN,,0.00,WeatherDisplay:10.37,2013-08-26 12:12:00,
2013-08-26 08:17:00,68.0,60.9,30.13,NNE,15,2.3,2.3,78,0.00,BKN,,0.00,WeatherDisplay:10.37,2013-08-26 12:17:00,
2013-08-26 08:22:00,68.3,61.2,30.13,SSW,198,2.3,0.0,78,0.00,BKN,,0.00,WeatherDisplay:10.37,2013-08-26 12:22:00,
2013-08-26 08:27:00,68.7,61.6,30.13,North,355,1.2,1.2,78,0.00,BKN,,0.00,WeatherDisplay:10.37,2013-08-26 12:27:00,
2013-08-26 08:32:00,68.8,61.3,30.14,NNW,340,0.0,0.0,77,0.00,BKN,,0.00,WeatherDisplay:10.37,2013-08-26 12:32:00,
2013-08-26 08:37:00,68.9,62.1,30.13,North,349,1.2,0.0,79,0.00,BKN,,0.00,WeatherDisplay:10.37,2013-08-26 12:37:00,
2013-08-26 08:42:00,68.8,61.7,30.13,NNW,348,0.0,0.0,78,0.00,BKN,,0.00,WeatherDisplay:10.37,2013-08-26 12:42:00,
2013-08-26 08:47:00,68.7,61.6,30.13,SW,219,1.2,0.0,78,0.00,BKN,,0.00,WeatherDisplay:10.37,2013-08-26 12:47:00,
2013-08-26 08:52:00,68.6,61.8,30.13,SE,138,2.3,2.3,79,0.00,BKN,,0.00,WeatherDisplay:10.37,2013-08-26 12:52:00,
2013-08-26 08:57:00,68.4,61.6,30.13,WSW,250,0.0,0.0,79,0.00,BKN,,0.00,WeatherDisplay:10.37,2013-08-26 12:57:00,
2013-08-26 09:02:00,68.2,61.1,30.12,SSE,167,2.3,2.3,78,0.00,CLR,,0.00,WeatherDisplay:10.37,2013-08-26 13:02:00,
2013-08-26 09:07:00,68.1,61.3,30.12,SSW,210,3.5,3.5,79,0.00,CLR,,0.00,WeatherDisplay:10.37,2013-08-26 13:07:00,
2013-08-26 09:12:00,68.0,61.2,30.12,South,190,4.6,4.6,79,0.00,CLR,,0.00,WeatherDisplay:10.37,2013-08-26 13:12:00,
2013-08-26 09:17:00,68.0,61.6,30.13,South,190,2.0,2.0,80,0.00,CLR,,0.00,WeatherDisplay:10.37,2013-08-26 13:17:00,
2013-08-26 09:22:00,68.0,61.2,30.12,South,179,3.5,3.5,79,0.00,CLR,,0.00,WeatherDisplay:10.37,2013-08-26 13:22:00,
2013-08-26 09:27:00,68.3,61.9,30.12,SSW,193,3.5,3.5,80,0.00,CLR,,0.00,WeatherDisplay:10.37,2013-08-26 13:27:00,
2013-08-26 09:32:00,68.7,62.3,30.12,SSW,203,4.0,4.0,80,0.00,CLR,,0.00,WeatherDisplay:10.37,2013-08-26 13:32:00,
2013-08-26 09:37:00,69.0,62.2,30.11,WSW,237,5.8,5.8,79,0.00,CLR,,0.00,WeatherDisplay:10.37,2013-08-26 13:37:00,
2013-08-26 09:42:00,69.4,62.6,30.11,WSW,247,2.3,2.3,79,0.00,CLR,,0.00,WeatherDisplay:10.37,2013-08-26 13:42:00,
2013-08-26 09:47:00,69.8,62.6,30.11,WSW,244,3.5,3.5,78,0.00,CLR,,0.00,WeatherDisplay:10.37,2013-08-26 13:47:00,
2013-08-26 09:52:00,70.4,62.8,30.11,SW,228,6.0,6.0,77,0.00,CLR,,0.00,WeatherDisplay:10.37,2013-08-26 13:52:00,
2013-08-26 09:57:00,71.2,63.2,30.11,South,190,6.0,6.0,76,0.00,CLR,,0.00,WeatherDisplay:10.37,2013-08-26 13:57:00,
2013-08-26 10:02:00,71.9,63.9,30.11,WSW,252,4.6,4.6,76,0.00,BKN,,0.00,WeatherDisplay:10.37,2013-08-26 14:02:00,
2013-08-26 10:07:00,72.7,64.3,30.11,NNW,331,4.6,4.6,75,0.00,BKN,,0.00,WeatherDisplay:10.37,2013-08-26 14:07:00,
2013-08-26 10:12:00,72.9,64.1,30.11,West,267,5.8,5.8,74,0.00,BKN,,0.00,WeatherDisplay:10.37,2013-08-26 14:12:00,
2013-08-26 10:17:00,72.5,63.7,30.11,South,180,3.5,3.5,74,0.00,BKN,,0.00,WeatherDisplay:10.37,2013-08-26 14:17:00,
2013-08-26 10:22:00,72.0,63.6,30.11,NW,312,0.0,0.0,75,0.00,BKN,,0.00,WeatherDisplay:10.37,2013-08-26 14:22:00,
2013-08-26 10:27:00,71.9,63.9,30.11,SSE,165,4.6,4.6,76,0.00,BKN,,0.00,WeatherDisplay:10.37,2013-08-26 14:27:00,
2013-08-26 10:32:00,71.8,63.4,30.11,SSW,192,6.9,6.9,75,0.00,BKN,,0.00,WeatherDisplay:10.37,2013-08-26 14:32:00,
2013-08-26 10:37:00,71.9,63.9,30.11,West,260,4.6,4.6,76,0.00,BKN,,0.00,WeatherDisplay:10.37,2013-08-26 14:37:00,
2013-08-26 10:42:00,72.5,64.1,30.10,NNW,340,3.5,3.5,75,0.00,BKN,,0.00,WeatherDisplay:10.37,2013-08-26 14:42:00,
2013-08-26 10:47:00,72.9,64.1,30.10,South,181,8.1,8.1,74,0.00,BKN,,0.00,WeatherDisplay:10.37,2013-08-26 14:47:00,
2013-08-26 10:52:00,72.9,65.3,30.10,SSW,193,3.5,3.5,77,0.00,BKN,,0.00,WeatherDisplay:10.37,2013-08-26 14:52:00,
2013-08-26 10:57:00,73.5,65.5,30.10,SW,221,4.6,4.6,76,0.00,BKN,,0.00,WeatherDisplay:10.37,2013-08-26 14:57:00,
2013-08-26 11:02:00,74.0,65.6,30.09,SW,225,3.5,3.5,75,0.00,SCT,,0.00,WeatherDisplay:10.37,2013-08-26 15:02:00,
2013-08-26 11:07:00,74.2,65.8,30.09,SSW,198,2.3,2.3,75,0.00,SCT,,0.00,WeatherDisplay:10.37,2013-08-26 15:07:00,
2013-08-26 11:12:00,74.9,66.8,30.08,WNW,300,3.5,3.5,76,0.00,SCT,,0.00,WeatherDisplay:10.37,2013-08-26 15:12:00,
2013-08-26 11:17:00,75.4,66.1,30.08,SSW,211,6.9,6.9,73,0.00,SCT,,0.00,WeatherDisplay:10.37,2013-08-26 15:17:00,
2013-08-26 11:22:00,75.3,66.0,30.08,SW,226,8.1,8.1,73,0.00,SCT,,0.00,WeatherDisplay:10.37,2013-08-26 15:22:00,
2013-08-26 11:27:00,75.6,66.7,30.08,SSW,201,4.6,4.6,74,0.00,SCT,,0.00,WeatherDisplay:10.37,2013-08-26 15:27:00,
2013-08-26 11:32:00,76.0,66.7,30.08,WSW,240,3.5,3.5,73,0.00,SCT,,0.00,WeatherDisplay:10.37,2013-08-26 15:32:00,
2013-08-26 11:37:00,76.0,66.3,30.07,SSW,212,4.6,4.6,72,0.00,SCT,,0.00,WeatherDisplay:10.37,2013-08-26 15:37:00,
2013-08-26 11:42:00,75.9,66.6,30.07,South,184,3.5,3.5,73,0.00,SCT,,0.00,WeatherDisplay:10.37,2013-08-26 15:42:00,
2013-08-26 11:47:00,75.9,66.6,30.07,SSW,196,8.1,8.1,73,0.00,SCT,,0.00,WeatherDisplay:10.37,2013-08-26 15:47:00,
2013-08-26 11:52:00,76.1,66.4,30.07,SSW,200,6.9,6.9,72,0.00,SCT,,0.00,WeatherDisplay:10.37,2013-08-26 15:52:00,
2013-08-26 11:57:00,76.2,66.9,30.07,West,269,5.8,5.8,73,0.00,SCT,,0.00,WeatherDisplay:10.37,2013-08-26 15:57:00,
2013-08-26 12:02:00,76.1,66.4,30.07,WNW,299,2.3,2.3,72,0.00,SCT,,0.00,WeatherDisplay:10.37,2013-08-26 16:02:00,
2013-08-26 12:07:00,75.8,66.1,30.07,West,277,9.2,9.2,72,0.00,SCT,,0.00,WeatherDisplay:10.37,2013-08-26 16:07:00,
2013-08-26 12:12:00,75.3,66.4,30.07,SSW,199,7.0,7.0,74,0.00,SCT,,0.00,WeatherDisplay:10.37,2013-08-26 16:12:00,
2013-08-26 12:17:00,74.9,66.1,30.07,NNW,333,3.5,3.5,74,0.00,SCT,,0.00,WeatherDisplay:10.37,2013-08-26 16:17:00,
2013-08-26 12:22:00,74.9,66.1,30.07,West,273,3.5,3.5,74,0.00,SCT,,0.00,WeatherDisplay:10.37,2013-08-26 16:22:00,
2013-08-26 12:27:00,74.8,66.3,30.06,NNW,338,0.0,0.0,75,0.00,SCT,,0.00,WeatherDisplay:10.37,2013-08-26 16:27:00,
2013-08-26 12:32:00,74.7,66.2,30.06,NW,322,8.1,8.1,75,0.00,SCT,,0.00,WeatherDisplay:10.37,2013-08-26 16:32:00,
2013-08-26 12:37:00,74.4,66.3,30.05,SW,236,3.5,3.5,76,0.00,SCT,,0.00,WeatherDisplay:10.37,2013-08-26 16:37:00,
2013-08-26 12:42:00,74.3,66.6,30.05,South,188,3.5,3.5,77,0.00,SCT,,0.00,WeatherDisplay:10.37,2013-08-26 16:42:00,
2013-08-26 12:47:00,74.0,66.7,30.05,SSW,207,4.0,4.0,78,0.00,SCT,,0.00,WeatherDisplay:10.37,2013-08-26 16:47:00,
2013-08-26 12:52:00,73.8,66.5,30.06,NW,316,2.3,2.3,78,0.00,SCT,,0.00,WeatherDisplay:10.37,2013-08-26 16:52:00,
2013-08-26 12:57:00,73.8,66.9,30.05,WSW,255,1.0,1.0,79,0.00,SCT,,0.00,WeatherDisplay:10.37,2013-08-26 16:57:00,
2013-08-26 13:02:00,73.9,67.0,30.05,South,171,4.6,4.6,79,0.00,-RA,,0.00,WeatherDisplay:10.37,2013-08-26 17:02:00,
2013-08-26 13:07:00,73.9,67.0,30.05,SSE,163,6.0,6.0,79,0.00,-RA,,0.00,WeatherDisplay:10.37,2013-08-26 17:07:00,
2013-08-26 13:12:00,73.9,67.0,30.05,SW,236,3.5,3.5,79,0.00,-RA,,0.00,WeatherDisplay:10.37,2013-08-26 17:12:00,
2013-08-26 13:17:00,74.1,67.2,30.04,SW,223,2.3,2.3,79,0.00,-RA,,0.00,WeatherDisplay:10.37,2013-08-26 17:17:00,
2013-08-26 13:22:00,74.3,67.0,30.04,NNE,12,3.5,3.5,78,0.00,-RA,,0.00,WeatherDisplay:10.37,2013-08-26 17:22:00,
2013-08-26 13:27:00,74.4,67.5,30.04,SW,218,2.3,2.3,79,0.00,-RA,,0.00,WeatherDisplay:10.37,2013-08-26 17:27:00,
2013-08-26 13:32:00,74.4,68.2,30.04,SSW,203,2.3,0.0,81,0.00,-RA,,0.00,WeatherDisplay:10.37,2013-08-26 17:32:00,
2013-08-26 13:37:00,74.3,67.4,30.04,SSW,196,3.5,3.5,79,0.00,-RA,,0.00,WeatherDisplay:10.37,2013-08-26 17:37:00,
2013-08-26 13:42:00,74.3,67.4,30.03,South,191,1.2,1.2,79,0.00,-RA,,0.00,WeatherDisplay:10.37,2013-08-26 17:42:00,
2013-08-26 13:47:00,74.5,67.6,30.03,South,191,1.2,1.2,79,0.00,-RA,,0.00,WeatherDisplay:10.37,2013-08-26 17:47:00,
2013-08-26 13:52:00,74.8,67.8,30.02,SW,219,2.3,2.3,79,0.00,-RA,,0.00,WeatherDisplay:10.37,2013-08-26 17:52:00,
2013-08-26 13:57:00,75.1,68.1,30.02,SSW,197,3.5,3.5,79,0.00,-RA,,0.00,WeatherDisplay:10.37,2013-08-26 17:57:00,
2013-08-26 14:02:00,75.4,68.8,30.02,East,96,2.3,2.3,80,0.00,-RA,,0.00,WeatherDisplay:10.37,2013-08-26 18:02:00,
2013-08-26 14:07:00,75.7,68.4,30.01,SW,226,3.5,3.5,78,0.00,-RA,,0.00,WeatherDisplay:10.37,2013-08-26 18:07:00,
2013-08-26 14:12:00,75.9,68.5,30.01,SSW,202,2.3,0.0,78,0.00,-RA,,0.00,WeatherDisplay:10.37,2013-08-26 18:12:00,
2013-08-26 14:17:00,76.0,68.3,30.01,SSW,196,4.6,4.6,77,0.00,-RA,,0.00,WeatherDisplay:10.37,2013-08-26 18:17:00,
2013-08-26 14:22:00,76.1,69.1,30.00,SW,222,3.5,3.5,79,0.00,-RA,,0.00,WeatherDisplay:10.37,2013-08-26 18:22:00,
2013-08-26 14:27:00,76.3,69.3,30.00,SW,223,1.2,1.2,79,0.00,-RA,,0.00,WeatherDisplay:10.37,2013-08-26 18:27:00,
2013-08-26 14:32:00,76.4,69.0,30.00,South,182,1.2,1.2,78,0.00,-RA,,0.00,WeatherDisplay:10.37,2013-08-26 18:32:00,
2013-08-26 14:37:00,76.4,68.7,29.99,WNW,300,3.5,3.5,77,0.00,-RA,,0.00,WeatherDisplay:10.37,2013-08-26 18:37:00,
2013-08-26 14:42:00,76.4,69.0,30.00,West,279,3.5,3.6,78,0.00,-RA,,0.00,WeatherDisplay:10.37,2013-08-26 18:42:00,
2013-08-26 14:47:00,76.5,68.7,29.99,WSW,255,3.0,3.0,77,0.00,-RA,,0.00,WeatherDisplay:10.37,2013-08-26 18:47:00,
2013-08-26 14:53:00,76.7,68.9,29.99,WSW,244,1.2,0.0,77,0.00,-RA,,0.00,WeatherDisplay:10.37,2013-08-26 18:53:00,
2013-08-26 14:58:00,76.9,69.5,29.99,South,185,2.3,0.0,78,0.00,-RA,,0.00,WeatherDisplay:10.37,2013-08-26 18:58:00,
2013-08-26 15:03:00,77.1,68.9,29.99,WSW,237,8.1,8.1,76,0.00,-RA,,0.00,WeatherDisplay:10.37,2013-08-26 19:03:00,
2013-08-26 15:08:00,77.2,68.7,29.99,SW,217,3.5,3.5,75,0.00,-RA,,0.00,WeatherDisplay:10.37,2013-08-26 19:08:00,
2013-08-26 15:13:00,77.3,69.1,29.98,SE,128,3.5,3.5,76,0.00,-RA,,0.00,WeatherDisplay:10.37,2013-08-26 19:13:00,
2013-08-26 15:18:00,77.7,69.5,29.98,West,277,6.9,6.9,76,0.00,-RA,,0.00,WeatherDisplay:10.37,2013-08-26 19:18:00,
2013-08-26 15:23:00,77.8,69.2,29.98,WSW,250,5.0,5.0,75,0.00,-RA,,0.00,WeatherDisplay:10.37,2013-08-26 19:23:00,
2013-08-26 15:28:00,77.7,69.5,29.98,SSW,212,2.3,2.3,76,0.00,-RA,,0.00,WeatherDisplay:10.37,2013-08-26 19:28:00,
2013-08-26 15:33:00,77.6,69.0,29.98,SSE,157,0.0,0.1,75,0.00,-RA,,0.00,WeatherDisplay:10.37,2013-08-26 19:33:00,
2013-08-26 15:38:00,77.6,69.0,29.98,South,186,6.9,6.9,75,0.00,-RA,,0.00,WeatherDisplay:10.37,2013-08-26 19:38:00,
2013-08-26 15:43:00,77.6,69.0,29.98,SSE,163,5.0,5.0,75,0.00,-RA,,0.00,WeatherDisplay:10.37,2013-08-26 19:43:00,
2013-08-26 15:48:00,77.5,68.6,29.97,South,172,9.2,9.2,74,0.00,-RA,,0.00,WeatherDisplay:10.37,2013-08-26 19:48:00,
2013-08-26 15:53:00,77.3,68.8,29.97,SE,134,0.0,0.2,75,0.00,-RA,,0.00,WeatherDisplay:10.37,2013-08-26 19:53:00,
2013-08-26 15:58:00,77.3,69.1,29.97,WSW,250,3.5,0.0,76,0.00,-RA,,0.00,WeatherDisplay:10.37,2013-08-26 19:58:00,
2013-08-26 16:03:00,77.3,69.1,29.97,SW,225,3.5,3.5,76,0.00,-RA,,0.00,WeatherDisplay:10.37,2013-08-26 20:03:00,
2013-08-26 16:08:00,77.5,68.9,29.97,NE,53,5.8,5.8,75,0.00,-RA,,0.00,WeatherDisplay:10.37,2013-08-26 20:08:00,
2013-08-26 16:13:00,77.6,69.4,29.96,WSW,258,3.0,3.0,76,0.00,-RA,,0.00,WeatherDisplay:10.37,2013-08-26 20:13:00,
2013-08-26 16:18:00,77.5,69.3,29.96,South,175,3.5,3.5,76,0.00,-RA,,0.00,WeatherDisplay:10.37,2013-08-26 20:18:00,
2013-08-26 16:23:00,77.4,69.6,29.96,SSW,196,3.5,3.5,77,0.00,-RA,,0.00,WeatherDisplay:10.37,2013-08-26 20:23:00,
2013-08-26 16:28:00,77.3,69.1,29.96,SSE,161,3.5,0.0,76,0.00,-RA,,0.00,WeatherDisplay:10.37,2013-08-26 20:28:00,
2013-08-26 16:33:00,77.4,69.6,29.96,West,260,3.5,3.5,77,0.00,-RA,,0.00,WeatherDisplay:10.37,2013-08-26 20:33:00,
2013-08-26 16:38:00,77.5,69.7,29.96,WSW,240,7.0,7.0,77,0.00,-RA,,0.00,WeatherDisplay:10.37,2013-08-26 20:38:00,
2013-08-26 16:43:00,77.6,69.4,29.95,SSE,166,3.5,3.5,76,0.00,-RA,,0.00,WeatherDisplay:10.37,2013-08-26 20:43:00,
2013-08-26 16:48:00,77.5,69.3,29.95,North,355,2.3,2.3,76,0.00,-RA,,0.00,WeatherDisplay:10.37,2013-08-26 20:48:00,
2013-08-26 16:53:00,77.5,69.7,29.95,West,265,2.3,2.3,77,0.00,-RA,,0.00,WeatherDisplay:10.37,2013-08-26 20:53:00,
2013-08-26 16:58:00,77.4,69.6,29.95,WSW,240,3.5,3.5,77,0.00,-RA,,0.00,WeatherDisplay:10.37,2013-08-26 20:58:00,
2013-08-26 17:03:00,77.4,69.6,29.96,WSW,239,3.5,3.5,77,0.00,BKN,,0.00,WeatherDisplay:10.37,2013-08-26 21:03:00,
2013-08-26 17:08:00,77.4,69.6,29.96,West,259,3.5,3.5,77,0.00,BKN,,0.00,WeatherDisplay:10.37,2013-08-26 21:08:00,
2013-08-26 17:13:00,77.4,70.0,29.96,WNW,302,3.5,3.5,78,0.00,BKN,,0.00,WeatherDisplay:10.37,2013-08-26 21:13:00,
2013-08-26 17:18:00,77.3,69.5,29.96,NW,312,1.2,1.2,77,0.00,BKN,,0.00,WeatherDisplay:10.37,2013-08-26 21:18:00,
2013-08-26 17:23:00,77.1,69.7,29.96,NW,320,3.5,3.5,78,0.00,BKN,,0.00,WeatherDisplay:10.37,2013-08-26 21:23:00,
2013-08-26 17:28:00,77.0,70.0,29.96,West,277,3.5,3.5,79,0.00,BKN,,0.00,WeatherDisplay:10.37,2013-08-26 21:28:00,
2013-08-26 17:33:00,76.7,70.4,29.96,West,271,1.2,1.2,81,0.00,BKN,,0.00,WeatherDisplay:10.37,2013-08-26 21:33:00,
2013-08-26 17:38:00,76.4,69.8,29.96,West,271,0.0,0.0,80,0.00,BKN,,0.00,WeatherDisplay:10.37,2013-08-26 21:38:00,
2013-08-26 17:43:00,76.2,69.9,29.96,West,271,0.0,0.0,81,0.00,BKN,,0.00,WeatherDisplay:10.37,2013-08-26 21:43:00,
2013-08-26 17:48:00,76.0,70.1,29.95,West,267,0.0,0.0,82,0.00,BKN,,0.00,WeatherDisplay:10.37,2013-08-26 21:48:00,
2013-08-26 17:53:00,75.8,70.6,29.95,South,173,3.5,3.5,84,0.00,BKN,,0.00,WeatherDisplay:10.37,2013-08-26 21:53:00,
2013-08-26 17:58:00,75.5,70.7,29.94,South,173,1.2,0.0,85,0.00,BKN,,0.00,WeatherDisplay:10.37,2013-08-26 21:58:00,
2013-08-26 18:03:00,75.3,70.8,29.94,South,173,0.0,0.0,86,0.00,-RA,,0.00,WeatherDisplay:10.37,2013-08-26 22:03:00,
2013-08-26 18:08:00,75.1,70.6,29.94,South,173,0.0,0.0,86,0.00,-RA,,0.00,WeatherDisplay:10.37,2013-08-26 22:08:00,
2013-08-26 18:13:00,75.0,70.9,29.94,South,173,0.0,0.0,87,0.00,-RA,,0.00,WeatherDisplay:10.37,2013-08-26 22:13:00,
2013-08-26 18:18:00,74.9,71.1,29.94,South,173,0.0,0.0,88,0.00,-RA,,0.00,WeatherDisplay:10.37,2013-08-26 22:18:00,
2013-08-26 18:23:00,74.8,71.0,29.94,South,173,0.0,0.0,88,0.00,-RA,,0.00,WeatherDisplay:10.37,2013-08-26 22:23:00,
2013-08-26 18:28:00,74.6,70.5,29.94,South,173,0.0,0.0,87,0.00,-RA,,0.00,WeatherDisplay:10.37,2013-08-26 22:28:00,
2013-08-26 18:33:00,74.5,70.7,29.94,South,173,0.0,0.0,88,0.00,-RA,,0.00,WeatherDisplay:10.37,2013-08-26 22:33:00,
2013-08-26 18:38:00,74.4,70.6,29.93,South,173,0.0,0.0,88,0.00,-RA,,0.00,WeatherDisplay:10.37,2013-08-26 22:38:00,
2013-08-26 18:43:00,74.2,70.4,29.94,South,173,0.0,0.0,88,0.00,-RA,,0.00,WeatherDisplay:10.37,2013-08-26 22:43:00,
2013-08-26 18:48:00,74.0,69.9,29.94,South,173,0.0,0.0,87,0.00,-RA,,0.00,WeatherDisplay:10.37,2013-08-26 22:48:00,
2013-08-26 18:53:00,74.0,69.9,29.94,WSW,253,0.0,0.0,87,0.00,-RA,,0.00,WeatherDisplay:10.37,2013-08-26 22:53:00,
2013-08-26 18:58:00,74.0,70.2,29.94,WSW,253,0.0,0.0,88,0.00,-RA,,0.00,WeatherDisplay:10.37,2013-08-26 22:58:00,
2013-08-26 19:03:00,73.9,70.1,29.94,WSW,253,0.0,0.0,88,0.00,SCT,,0.00,WeatherDisplay:10.37,2013-08-26 23:03:00,
2013-08-26 19:08:00,73.9,70.1,29.94,WSW,253,0.0,0.0,88,0.00,SCT,,0.00,WeatherDisplay:10.37,2013-08-26 23:08:00,
2013-08-26 19:13:00,73.8,70.0,29.94,WSW,253,0.0,0.0,88,0.00,SCT,,0.00,WeatherDisplay:10.37,2013-08-26 23:13:00,
2013-08-26 19:18:00,73.7,70.3,29.94,WSW,253,0.0,0.0,89,0.00,SCT,,0.00,WeatherDisplay:10.37,2013-08-26 23:18:00,
2013-08-26 19:23:00,73.6,70.2,29.94,WSW,253,0.0,0.0,89,0.00,SCT,,0.00,WeatherDisplay:10.37,2013-08-26 23:23:00,
2013-08-26 19:28:00,73.5,70.1,29.94,WSW,253,0.0,0.0,89,0.00,SCT,,0.00,WeatherDisplay:10.37,2013-08-26 23:28:00,
2013-08-26 19:33:00,73.4,70.0,29.94,WSW,253,0.0,0.0,89,0.00,SCT,,0.00,WeatherDisplay:10.37,2013-08-26 23:33:00,
2013-08-26 19:38:00,73.3,69.9,29.94,WSW,253,0.0,0.0,89,0.00,SCT,,0.00,WeatherDisplay:10.37,2013-08-26 23:38:00,
2013-08-26 19:43:00,73.1,69.7,29.93,WSW,253,0.0,0.0,89,0.00,SCT,,0.00,WeatherDisplay:10.37,2013-08-26 23:43:00,
2013-08-26 19:48:00,72.9,69.8,29.93,WSW,253,0.0,0.0,90,0.00,SCT,,0.00,WeatherDisplay:10.37,2013-08-26 23:48:00,
2013-08-26 19:53:00,72.8,69.7,29.93,WSW,253,0.0,0.0,90,0.00,SCT,,0.00,WeatherDisplay:10.37,2013-08-26 23:53:00,
2013-08-26 19:58:00,72.6,69.8,29.93,WSW,253,0.0,0.0,91,0.00,SCT,,0.00,WeatherDisplay:10.37,2013-08-26 23:58:00,
2013-08-26 20:03:00,72.5,69.7,29.93,WSW,253,0.0,0.0,91,0.00,SCT,,0.00,WeatherDisplay:10.37,2013-08-27 00:03:00,
2013-08-26 20:08:00,72.3,69.5,29.93,WSW,253,0.0,0.0,91,0.00,SCT,,0.00,WeatherDisplay:10.37,2013-08-27 00:08:00,
2013-08-26 20:13:00,72.2,69.4,29.93,WSW,253,0.0,0.0,91,0.00,SCT,,0.00,WeatherDisplay:10.37,2013-08-27 00:13:00,
2013-08-26 20:18:00,72.1,69.6,29.93,WSW,253,0.0,0.0,92,0.00,SCT,,0.00,WeatherDisplay:10.37,2013-08-27 00:18:00,
2013-08-26 20:23:00,72.1,69.6,29.93,WSW,253,0.0,0.0,92,0.00,SCT,,0.00,WeatherDisplay:10.37,2013-08-27 00:23:00,
2013-08-26 20:28:00,72.1,69.6,29.93,WSW,253,0.0,0.0,92,0.00,SCT,,0.00,WeatherDisplay:10.37,2013-08-27 00:28:00,
2013-08-26 20:33:00,72.0,69.5,29.93,WSW,253,0.0,0.0,92,0.00,SCT,,0.00,WeatherDisplay:10.37,2013-08-27 00:33:00,
2013-08-26 20:38:00,71.9,69.4,29.93,WSW,253,0.0,0.0,92,0.00,SCT,,0.00,WeatherDisplay:10.37,2013-08-27 00:38:00,
2013-08-26 20:43:00,71.9,69.4,29.93,WSW,253,0.0,0.0,92,0.00,SCT,,0.00,WeatherDisplay:10.37,2013-08-27 00:43:00,
2013-08-26 20:48:00,71.8,69.3,29.93,WSW,253,0.0,0.0,92,0.00,SCT,,0.00,WeatherDisplay:10.37,2013-08-27 00:48:00,
2013-08-26 20:53:00,71.8,69.3,29.93,WSW,253,0.0,0.0,92,0.00,SCT,,0.00,WeatherDisplay:10.37,2013-08-27 00:53:00,
2013-08-26 20:58:00,71.8,69.7,29.94,WSW,253,1.0,0.0,93,0.00,SCT,,0.00,WeatherDisplay:10.37,2013-08-27 00:58:00,
2013-08-26 21:03:00,72.0,70.2,29.95,North,11,3.5,3.5,94,0.03,RA,,0.03,WeatherDisplay:10.37,2013-08-27 01:03:00,
2013-08-26 21:08:00,72.0,70.2,29.95,North,11,0.0,0.0,94,0.07,RA,,0.07,WeatherDisplay:10.37,2013-08-27 01:08:00,
2013-08-26 21:13:00,71.9,70.4,29.96,NW,309,4.0,4.0,95,0.08,RA,,0.08,WeatherDisplay:10.37,2013-08-27 01:13:00,
2013-08-26 21:18:00,71.7,70.5,29.96,North,5,3.5,3.5,96,0.10,RA,,0.10,WeatherDisplay:10.37,2013-08-27 01:18:00,
2013-08-26 21:23:00,71.5,70.3,29.96,NW,318,1.2,0.0,96,0.12,RA,,0.12,WeatherDisplay:10.37,2013-08-27 01:23:00,
2013-08-26 21:28:00,71.3,70.1,29.95,NW,318,0.0,0.0,96,0.13,RA,,0.13,WeatherDisplay:10.37,2013-08-27 01:28:00,
2013-08-26 21:33:00,71.2,70.3,29.95,NW,318,0.0,0.0,97,0.14,RA,,0.14,WeatherDisplay:10.37,2013-08-27 01:33:00,
2013-08-26 21:38:00,71.1,70.2,29.94,NW,318,0.0,0.0,97,0.14,RA,,0.14,WeatherDisplay:10.37,2013-08-27 01:38:00,
2013-08-26 21:43:00,71.1,70.2,29.94,NW,318,0.0,0.0,97,0.15,RA,,0.15,WeatherDisplay:10.37,2013-08-27 01:43:00,
2013-08-26 21:48:00,71.0,70.1,29.94,NW,318,0.0,0.0,97,0.15,RA,,0.15,WeatherDisplay:10.37,2013-08-27 01:48:00,
2013-08-26 21:53:00,70.9,70.0,29.94,NW,318,0.0,0.0,97,0.15,BKN,,0.15,WeatherDisplay:10.37,2013-08-27 01:53:00,
2013-08-26 21:58:00,70.8,70.2,29.94,NW,318,0.0,0.0,98,0.15,BKN,,0.15,WeatherDisplay:10.37,2013-08-27 01:58:00,
2013-08-26 22:03:00,70.7,70.1,29.93,NW,318,1.2,1.2,98,0.12, +RA,,0.15,WeatherDisplay:10.37,2013-08-27 02:03:00,
2013-08-26 22:08:00,70.8,70.2,29.93,NW,318,0.0,0.0,98,0.09, +RA,,0.16,WeatherDisplay:10.37,2013-08-27 02:08:00,
2013-08-26 22:13:00,70.8,70.2,29.93,NW,318,0.0,0.0,98,0.08, +RA,,0.16,WeatherDisplay:10.37,2013-08-27 02:13:00,
2013-08-26 22:18:00,70.7,70.1,29.93,NW,318,0.0,0.0,98,0.06, +RA,,0.16,WeatherDisplay:10.37,2013-08-27 02:18:00,
2013-08-26 22:23:00,70.7,70.4,29.93,NW,318,0.0,0.0,99,0.05, +RA,,0.18,WeatherDisplay:10.37,2013-08-27 02:23:00,
2013-08-26 22:28:00,70.7,70.4,29.93,NW,321,3.5,3.5,99,0.05, +RA,,0.19,WeatherDisplay:10.37,2013-08-27 02:28:00,
2013-08-26 22:33:00,70.6,70.3,29.93,North,11,1.2,0.0,99,0.05, +RA,,0.20,WeatherDisplay:10.37,2013-08-27 02:33:00,
2013-08-26 22:38:00,70.5,70.2,29.93,SSW,210,1.2,1.2,99,0.05, +RA,,0.20,WeatherDisplay:10.37,2013-08-27 02:38:00,
2013-08-26 22:43:00,70.4,69.8,29.92,NNE,19,3.0,3.0,98,0.05, +RA,,0.21,WeatherDisplay:10.37,2013-08-27 02:43:00,
2013-08-26 22:48:00,70.4,70.1,29.92,WNW,302,0.0,0.1,99,0.05, +RA,,0.21,WeatherDisplay:10.37,2013-08-27 02:48:00,
2013-08-26 22:53:00,70.3,70.0,29.92,WNW,301,0.0,0.0,99,0.06, +RA,,0.22,WeatherDisplay:10.37,2013-08-27 02:53:00,
2013-08-26 22:58:00,70.3,70.0,29.92,WNW,301,0.0,0.0,99,0.06, +RA,,0.22,WeatherDisplay:10.37,2013-08-27 02:58:00,
2013-08-26 23:03:00,70.2,69.9,29.91,WNW,301,0.0,0.0,99,0.06,-DZ,,0.22,WeatherDisplay:10.37,2013-08-27 03:03:00,
2013-08-26 23:08:00,70.2,69.9,29.91,WNW,301,0.0,0.0,99,0.05,-DZ,,0.22,WeatherDisplay:10.37,2013-08-27 03:08:00,
2013-08-26 23:13:00,70.1,69.8,29.91,WNW,301,0.0,0.0,99,0.05,-DZ,,0.22,WeatherDisplay:10.37,2013-08-27 03:13:00,
2013-08-26 23:18:00,70.1,69.8,29.91,WNW,301,0.0,0.0,99,0.05,-DZ,,0.22,WeatherDisplay:10.37,2013-08-27 03:18:00,
2013-08-26 23:23:00,70.0,69.7,29.90,WNW,301,0.0,0.0,99,0.05,-DZ,,0.23,WeatherDisplay:10.37,2013-08-27 03:23:00,
2013-08-26 23:28:00,70.0,69.7,29.90,WNW,301,0.0,0.0,99,0.04,-DZ,,0.23,WeatherDisplay:10.37,2013-08-27 03:28:00,
2013-08-26 23:33:00,70.1,69.8,29.90,WNW,301,1.2,1.2,99,0.03,-DZ,,0.23,WeatherDisplay:10.37,2013-08-27 03:33:00,
2013-08-26 23:38:00,70.2,69.9,29.90,WNW,301,0.0,0.0,99,0.03,-DZ,,0.23,WeatherDisplay:10.37,2013-08-27 03:38:00,
2013-08-26 23:43:00,70.1,69.8,29.90,WNW,301,0.0,0.0,99,0.02,-DZ,,0.23,WeatherDisplay:10.37,2013-08-27 03:43:00,
2013-08-26 23:48:00,70.1,69.8,29.89,WNW,301,0.0,0.0,99,0.02,-DZ,,0.23,WeatherDisplay:10.37,2013-08-27 03:48:00,
2013-08-26 23:53:00,70.1,70.1,29.89,WNW,301,0.0,0.0,100,0.01,-DZ,,0.23,WeatherDisplay:10.37,2013-08-27 03:53:00,
2013-08-26 23:58:00,70.1,70.1,29.88,WNW,301,0.0,0.0,100,0.01,-DZ,,0.23,WeatherDisplay:10.37,2013-08-27 03:58:00,